Terminal Aerodrome Forecast
Issued by NWS

Current Version | Previous Version | Text Only | Print | Product List | Glossary Off
Versions: 1 2 3 4 5 6 7 8 9 10 11 12 13 14 15 16 17 18 19 20 21 22 23 24 25 26 27 28 29 30 31 32 33 34 35 36 37 38 39 40

000
FTUS41 KRNK 191139
TAFLWB
TAF
KLWB 191139Z 1912/2012 00000KT 4SM BR OVC004
      TEMPO 1912/1913 2SM BR OVC002
     FM191400 30007KT P6SM BKN015
     FM191800 00000KT 6SM -SHRA OVC035
     FM200100 00000KT 5SM HZ BKN250
     FM200500 00000KT 3/4SM BR OVC001=

USA.gov is the U.S. government's official web portal to all federal, state and local government web resources and services.